Time;durP1;ratioP1;P1;durP2;ratioP2;P2;SDS_P1;SDS_P2;PMS_P1;PMS_P2;Temp;Humidity;BMP_temperature;BMP_pressure;BME280_temperature;BME280_humidity;BME280_pressure;Samples;Min_cycle;Max_cycle;Signal;HPM_P1;HPM_P2
2020/12/14 00:02:23;;;;;;;1.67;0.20;;;6.80;99.90;;;;;;5076189;28;20028;-81
2020/12/14 00:04:49;;;;;;;5.53;0.57;;;6.80;99.90;;;;;;5077217;28;20025;-80
2020/12/14 00:07:14;;;;;;;2.20;0.20;;;6.80;99.90;;;;;;5077880;28;20062;-80
2020/12/14 00:09:40;;;;;;;3.05;0.08;;;6.80;99.90;;;;;;5077845;28;20025;-79
2020/12/14 00:12:06;;;;;;;6.95;0.68;;;6.80;99.90;;;;;;5077606;28;20025;-80
2020/12/14 00:14:32;;;;;;;1.98;0.28;;;6.80;99.90;;;;;;5080178;28;20058;-81
2020/12/14 00:16:58;;;;;;;5.90;0.57;;;6.90;99.90;;;;;;5074941;28;20025;-81
2020/12/14 00:19:23;;;;;;;4.80;0.22;;;6.90;99.90;;;;;;5076191;28;20056;-81
2020/12/14 00:21:53;;;;;;;5.50;0.47;;;6.90;99.90;;;;;;5075828;28;20025;-80
2020/12/14 00:24:22;;;;;;;6.88;0.40;;;6.90;99.90;;;;;;5076343;28;20025;-80
2020/12/14 00:26:51;;;;;;;3.83;0.00;;;7.00;99.90;;;;;;5057557;28;20033;-80
2020/12/14 00:29:17;;;;;;;;;;;7.00;99.90;;;;;;5055542;28;20059;-81
2020/12/14 00:31:43;;;;;;;4.63;0.10;;;7.00;99.90;;;;;;5060117;28;19905;-79
2020/12/14 00:34:09;;;;;;;2.13;0.20;;;7.00;99.90;;;;;;5060954;28;20029;-79
2020/12/14 00:36:34;;;;;;;2.42;0.10;;;7.00;99.90;;;;;;5062817;28;20485;-79
2020/12/14 00:39:00;;;;;;;4.45;0.28;;;7.00;99.90;;;;;;5073611;28;20021;-82
2020/12/14 00:41:25;;;;;;;0.88;0.00;;;7.00;99.90;;;;;;5081885;28;20031;-81
2020/12/14 00:43:51;;;;;;;0.82;0.00;;;7.00;99.90;;;;;;5080551;28;20169;-82
2020/12/14 00:46:17;;;;;;;1.98;0.20;;;7.10;99.90;;;;;;5081839;28;20162;-81
2020/12/14 00:48:44;;;;;;;3.90;0.25;;;7.10;99.90;;;;;;5081728;28;20025;-78
2020/12/14 00:51:09;;;;;;;2.17;0.15;;;7.10;99.90;;;;;;5080478;28;20080;-78
2020/12/14 00:53:36;;;;;;;2.35;0.10;;;7.10;99.90;;;;;;5083357;28;20036;-79
2020/12/14 00:56:02;;;;;;;1.33;0.00;;;7.10;99.90;;;;;;5085954;28;20047;-80
2020/12/14 00:58:28;;;;;;;3.38;0.20;;;7.10;99.90;;;;;;5082433;28;20143;-79
2020/12/14 01:00:53;;;;;;;4.30;0.32;;;7.10;99.90;;;;;;5078644;28;20385;-78
2020/12/14 01:03:19;;;;;;;7.97;0.80;;;7.10;99.90;;;;;;5080148;28;20028;-78
2020/12/14 01:05:45;;;;;;;2.72;0.00;;;7.20;99.90;;;;;;5076823;28;20032;-78
2020/12/14 01:08:10;;;;;;;4.07;0.22;;;7.20;99.90;;;;;;5080300;28;20521;-78
2020/12/14 01:10:36;;;;;;;0.85;0.25;;;7.20;99.90;;;;;;5078285;28;20100;-79
2020/12/14 01:13:01;;;;;;;1.88;0.47;;;7.30;99.90;;;;;;5077243;28;20052;-78
2020/12/14 01:15:27;;;;;;;3.50;0.35;;;7.30;99.90;;;;;;5080641;28;20019;-79
2020/12/14 01:17:53;;;;;;;2.30;0.00;;;7.40;99.90;;;;;;5079399;28;20020;-78
2020/12/14 01:20:18;;;;;;;1.95;0.25;;;7.40;99.90;;;;;;5080379;28;20074;-80
2020/12/14 01:22:44;;;;;;;1.08;0.00;;;7.40;99.90;;;;;;5076344;28;20050;-79
2020/12/14 01:25:09;;;;;;;2.53;0.20;;;7.50;99.90;;;;;;5078780;28;20413;-79
2020/12/14 01:27:35;;;;;;;0.98;0.20;;;7.50;99.90;;;;;;5083374;28;20013;-79
2020/12/14 01:30:00;;;;;;;3.60;0.45;;;7.50;99.90;;;;;;5083673;28;20474;-81
2020/12/14 01:32:26;;;;;;;1.65;0.00;;;7.60;99.90;;;;;;5085137;28;20035;-80
2020/12/14 01:34:52;;;;;;;3.30;0.55;;;7.50;99.90;;;;;;5087143;28;20393;-80
2020/12/14 01:37:17;;;;;;;2.33;0.05;;;7.60;99.90;;;;;;5080381;28;20028;-79
2020/12/14 01:39:43;;;;;;;1.67;0.20;;;7.60;99.90;;;;;;5080858;28;20028;-80
2020/12/14 01:42:08;;;;;;;4.65;0.35;;;7.70;99.90;;;;;;5079211;28;20077;-80
2020/12/14 01:44:34;;;;;;;2.70;0.05;;;7.70;99.90;;;;;;5081168;28;20079;-80
2020/12/14 01:47:02;;;;;;;8.85;0.13;;;7.70;99.90;;;;;;5076607;28;20032;-78
2020/12/14 01:49:29;;;;;;;0.35;0.05;;;7.80;99.90;;;;;;5077426;28;20485;-79
2020/12/14 01:51:54;;;;;;;0.68;0.00;;;7.70;99.90;;;;;;5082375;28;20025;-79
2020/12/14 01:54:35;;;;;;;2.17;0.30;;;7.70;99.90;;;;;;5077632;28;20025;-79
2020/12/14 01:57:02;;;;;;;3.00;0.00;;;7.80;99.90;;;;;;5080855;28;20070;-79
2020/12/14 01:59:28;;;;;;;2.60;0.55;;;7.70;99.90;;;;;;5084453;28;20059;-78
2020/12/14 02:01:53;;;;;;;0.82;0.00;;;7.70;99.90;;;;;;5081040;28;20021;-79
2020/12/14 02:04:19;;;;;;;2.50;0.00;;;7.70;99.90;;;;;;5081238;28;20033;-80
2020/12/14 02:06:44;;;;;;;1.98;0.00;;;7.80;99.90;;;;;;5079339;28;20034;-78
2020/12/14 02:09:10;;;;;;;1.85;0.00;;;7.80;99.90;;;;;;5076091;28;20024;-78
2020/12/14 02:11:36;;;;;;;1.27;0.10;;;7.80;99.90;;;;;;5075950;28;20021;-79
2020/12/14 02:14:02;;;;;;;3.58;0.10;;;7.80;99.90;;;;;;5078840;28;20025;-81
2020/12/14 02:16:28;;;;;;;2.25;0.10;;;7.70;99.90;;;;;;5078940;28;20033;-79
2020/12/14 02:18:56;;;;;;;0.82;0.35;;;7.80;99.90;;;;;;5073771;28;20028;-79
2020/12/14 02:21:21;;;;;;;1.48;0.40;;;7.80;99.90;;;;;;5075673;28;20024;-81
2020/12/14 02:23:47;;;;;;;2.25;0.25;;;7.80;99.90;;;;;;5077994;28;20028;-79
2020/12/14 02:26:12;;;;;;;3.42;0.10;;;7.80;99.90;;;;;;5081615;28;20029;-79
2020/12/14 02:28:38;;;;;;;1.63;0.10;;;7.80;99.90;;;;;;5075571;28;20017;-78
2020/12/14 02:31:04;;;;;;;1.98;0.05;;;7.90;99.90;;;;;;5076108;28;20081;-79
2020/12/14 02:33:30;;;;;;;2.22;0.10;;;7.90;99.90;;;;;;5076335;28;20382;-78
2020/12/14 02:35:55;;;;;;;0.40;0.05;;;7.90;99.90;;;;;;5073623;28;20020;-78
2020/12/14 02:38:22;;;;;;;0.85;0.00;;;7.90;99.90;;;;;;5079423;28;20028;-80
2020/12/14 02:40:48;;;;;;;1.20;0.00;;;7.90;99.90;;;;;;5078234;28;20020;-80
2020/12/14 02:43:14;;;;;;;2.30;0.08;;;7.90;99.90;;;;;;5081484;28;20025;-79
2020/12/14 02:45:40;;;;;;;3.53;0.10;;;7.90;99.90;;;;;;5082766;28;20111;-79
2020/12/14 02:48:06;;;;;;;6.32;0.10;;;7.90;99.90;;;;;;5082119;28;20028;-80
2020/12/14 02:50:35;;;;;;;3.05;0.10;;;7.90;99.90;;;;;;5079791;28;20029;-79
2020/12/14 02:53:01;;;;;;;;;;;7.90;99.90;;;;;;5075929;28;20032;-79
2020/12/14 02:55:27;;;;;;;3.40;0.10;;;7.90;99.90;;;;;;5081369;28;20021;-80
2020/12/14 02:57:56;;;;;;;1.38;0.10;;;7.90;99.90;;;;;;5079188;28;20013;-80
2020/12/14 03:00:22;;;;;;;2.30;0.20;;;7.90;99.90;;;;;;5078523;28;20021;-79
2020/12/14 03:02:47;;;;;;;2.33;0.20;;;7.80;99.90;;;;;;5076965;28;20070;-80
2020/12/14 03:05:13;;;;;;;4.63;0.90;;;7.80;99.90;;;;;;5078458;28;20095;-80
2020/12/14 03:07:38;;;;;;;2.60;0.20;;;7.80;99.90;;;;;;5078370;28;20075;-80
2020/12/14 03:10:04;;;;;;;2.00;0.30;;;7.80;99.90;;;;;;5077081;28;20025;-80
2020/12/14 03:12:32;;;;;;;2.33;0.35;;;7.80;99.90;;;;;;5077249;28;20044;-81
2020/12/14 03:14:59;;;;;;;1.77;0.60;;;7.80;99.90;;;;;;5078983;28;20509;-80
2020/12/14 03:17:25;;;;;;;2.85;0.35;;;7.80;99.90;;;;;;5076902;28;20021;-79
2020/12/14 03:19:50;;;;;;;4.03;0.77;;;7.80;99.90;;;;;;5074469;28;20025;-79
2020/12/14 03:22:16;;;;;;;1.13;0.10;;;7.70;99.90;;;;;;5074300;28;20033;-79
2020/12/14 03:24:41;;;;;;;0.88;0.45;;;7.70;99.90;;;;;;5074194;28;20502;-79
2020/12/14 03:27:07;;;;;;;2.83;0.20;;;7.70;99.90;;;;;;5075254;28;20055;-78
2020/12/14 03:29:32;;;;;;;3.88;0.38;;;7.70;99.90;;;;;;5074520;28;20024;-78
2020/12/14 03:31:58;;;;;;;3.00;0.85;;;7.60;99.90;;;;;;5079367;28;20074;-78
2020/12/14 03:34:23;;;;;;;6.25;0.93;;;7.60;99.90;;;;;;5077764;28;20013;-79
2020/12/14 03:36:49;;;;;;;3.78;1.00;;;7.60;99.90;;;;;;5080868;28;20028;-79
2020/12/14 03:39:14;;;;;;;1.40;0.35;;;7.60;99.90;;;;;;5081035;28;20028;-80
2020/12/14 03:41:40;;;;;;;3.70;0.57;;;7.60;99.90;;;;;;5082564;28;20037;-79
2020/12/14 03:44:05;;;;;;;2.47;0.98;;;7.50;99.90;;;;;;5081191;28;20074;-78
2020/12/14 03:46:31;;;;;;;0.70;0.40;;;7.50;99.90;;;;;;5077573;28;20024;-81
2020/12/14 03:48:57;;;;;;;2.38;0.35;;;7.60;99.90;;;;;;5077297;28;20028;-80
2020/12/14 03:51:23;;;;;;;3.08;0.80;;;7.60;99.90;;;;;;5076334;28;20021;-82
2020/12/14 03:53:50;;;;;;;9.10;1.20;;;7.60;99.90;;;;;;5081768;28;20020;-80
2020/12/14 03:56:23;;;;;;;1.10;0.57;;;7.50;99.90;;;;;;5074922;28;20020;-78
2020/12/14 03:58:49;;;;;;;1.65;0.60;;;7.50;99.90;;;;;;5073918;28;20028;-78
2020/12/14 04:01:25;;;;;;;1.38;0.50;;;7.50;99.90;;;;;;5073732;28;20386;-78
2020/12/14 04:03:52;;;;;;;5.65;1.13;;;7.60;99.90;;;;;;5074999;28;20478;-79
2020/12/14 04:06:19;;;;;;;1.88;0.60;;;7.60;99.90;;;;;;5077023;28;20393;-79
2020/12/14 04:08:46;;;;;;;4.97;0.82;;;7.60;99.90;;;;;;5074038;28;20020;-78
2020/12/14 04:11:11;;;;;;;2.28;0.68;;;7.60;99.90;;;;;;5077247;28;20099;-79
2020/12/14 04:13:37;;;;;;;10.23;1.27;;;7.60;99.90;;;;;;5083775;28;20025;-81
2020/12/14 04:16:02;;;;;;;3.72;1.08;;;7.60;99.90;;;;;;5081783;28;20025;-81
2020/12/14 04:18:28;;;;;;;1.17;0.90;;;7.60;99.90;;;;;;5082238;28;20063;-81
2020/12/14 04:20:55;;;;;;;2.70;0.60;;;7.70;99.90;;;;;;5075959;28;20032;-83
2020/12/14 04:23:20;;;;;;;2.47;1.02;;;7.70;99.90;;;;;;5076502;28;20021;-82
2020/12/14 04:25:46;;;;;;;1.38;0.93;;;7.70;99.90;;;;;;5074855;28;20044;-83
2020/12/14 04:28:11;;;;;;;1.85;1.20;;;7.70;99.90;;;;;;5077136;28;20025;-80
2020/12/14 04:30:37;;;;;;;1.75;0.85;;;7.70;99.90;;;;;;5081815;28;20051;-80
2020/12/14 04:33:02;;;;;;;2.60;1.15;;;7.80;99.90;;;;;;5078941;28;20016;-79
2020/12/14 04:35:28;;;;;;;2.47;0.98;;;7.80;99.90;;;;;;5079164;28;20027;-78
2020/12/14 04:37:53;;;;;;;4.45;0.90;;;7.80;99.90;;;;;;5077164;28;20037;-78
2020/12/14 04:40:20;;;;;;;4.60;1.30;;;7.80;99.90;;;;;;5074912;28;20543;-80
2020/12/14 04:42:50;;;;;;;5.95;1.75;;;7.80;99.90;;;;;;5078423;28;20017;-79
2020/12/14 04:45:16;;;;;;;3.30;1.00;;;7.80;99.90;;;;;;5079379;28;20020;-79
2020/12/14 04:47:42;;;;;;;3.20;0.88;;;7.80;99.90;;;;;;5080063;28;20051;-80
2020/12/14 04:50:09;;;;;;;3.22;1.10;;;7.80;99.90;;;;;;5080385;28;20382;-79
2020/12/14 04:52:34;;;;;;;4.38;1.30;;;7.80;99.90;;;;;;5076459;28;20048;-81
2020/12/14 04:55:01;;;;;;;1.67;1.52;;;7.80;99.90;;;;;;5072462;28;20024;-78
2020/12/14 04:57:30;;;;;;;3.35;1.35;;;7.80;99.90;;;;;;5076424;28;20070;-80
2020/12/14 04:59:56;;;;;;;2.40;1.17;;;7.80;99.90;;;;;;5076131;28;20055;-80
2020/12/14 05:02:22;;;;;;;3.10;1.50;;;7.80;99.90;;;;;;5075414;28;20032;-81
2020/12/14 05:04:47;;;;;;;1.92;1.23;;;7.80;99.90;;;;;;5076442;28;20040;-80
2020/12/14 05:07:14;;;;;;;5.10;1.23;;;7.80;99.90;;;;;;5075720;28;20481;-79
2020/12/14 05:09:41;;;;;;;1.40;1.17;;;7.80;99.90;;;;;;5074984;28;20024;-81
2020/12/14 05:12:19;;;;;;;2.20;1.48;;;7.80;99.90;;;;;;5078951;28;20024;-81
2020/12/14 05:14:45;;;;;;;5.00;1.60;;;7.80;99.90;;;;;;5077120;28;20107;-80
2020/12/14 05:17:24;;;;;;;3.03;1.10;;;7.90;99.90;;;;;;5075724;28;20107;-78
2020/12/14 05:19:50;;;;;;;2.28;1.95;;;7.80;99.90;;;;;;5075740;28;20107;-78
2020/12/14 05:22:17;;;;;;;2.17;1.20;;;7.80;99.90;;;;;;5079831;28;20025;-82
2020/12/14 05:24:50;;;;;;;3.70;0.82;;;7.90;99.90;;;;;;5078715;28;20055;-80
2020/12/14 05:27:33;;;;;;;1.65;1.00;;;7.90;99.90;;;;;;5079560;28;20027;-81
2020/12/14 05:29:59;;;;;;;4.97;1.10;;;7.90;99.90;;;;;;5079431;28;20028;-79
2020/12/14 05:32:25;;;;;;;3.13;1.25;;;7.90;99.90;;;;;;5079364;28;20024;-79
2020/12/14 05:34:51;;;;;;;2.03;1.02;;;7.90;99.90;;;;;;5080704;28;20072;-79
2020/12/14 05:37:17;;;;;;;2.22;0.68;;;8.00;99.90;;;;;;5078982;28;20450;-80
2020/12/14 05:39:44;;;;;;;4.00;1.05;;;7.90;99.90;;;;;;5079434;28;20021;-79
2020/12/14 05:42:20;;;;;;;2.25;0.90;;;8.00;99.90;;;;;;5076063;28;20435;-78
2020/12/14 05:44:48;;;;;;;1.92;0.88;;;8.00;99.90;;;;;;5078806;28;20067;-80
2020/12/14 05:47:30;;;;;;;1.38;0.80;;;8.00;99.90;;;;;;5078639;28;20024;-81
2020/12/14 05:49:58;;;;;;;0.85;0.70;;;8.00;99.90;;;;;;5080063;28;20070;-80
2020/12/14 05:52:30;;;;;;;1.15;0.98;;;8.00;99.90;;;;;;5077201;28;20025;-79
2020/12/14 05:54:56;;;;;;;1.65;0.82;;;8.00;99.90;;;;;;5075965;28;20103;-78
2020/12/14 05:57:35;;;;;;;3.22;1.00;;;8.10;99.90;;;;;;5080381;28;20020;-77
2020/12/14 06:00:06;;;;;;;1.60;1.00;;;8.10;99.90;;;;;;5080468;28;20028;-78
2020/12/14 06:02:31;;;;;;;2.95;0.80;;;8.10;99.90;;;;;;5081966;28;20028;-78
2020/12/14 06:04:59;;;;;;;2.38;0.70;;;8.10;99.90;;;;;;5078691;28;20094;-78
2020/12/14 06:07:27;;;;;;;3.25;1.00;;;8.10;99.90;;;;;;5079022;28;20029;-79
2020/12/14 06:10:13;;;;;;;1.58;0.93;;;8.10;99.90;;;;;;5080689;28;20028;-79
2020/12/14 06:12:42;;;;;;;2.97;0.80;;;8.20;99.90;;;;;;5080788;28;20028;-80
2020/12/14 06:15:09;;;;;;;5.30;0.70;;;8.20;99.90;;;;;;5080167;28;20051;-79
2020/12/14 06:17:36;;;;;;;3.95;0.70;;;8.20;99.90;;;;;;5077316;28;20016;-78
2020/12/14 06:20:10;;;;;;;2.00;0.60;;;8.30;99.90;;;;;;5075170;28;20024;-78
2020/12/14 06:22:39;;;;;;;1.50;0.73;;;8.30;99.90;;;;;;5075444;28;20066;-79
2020/12/14 06:25:06;;;;;;;0.68;0.65;;;8.30;99.90;;;;;;5075083;28;20020;-79
2020/12/14 06:27:32;;;;;;;3.95;0.93;;;8.30;99.90;;;;;;5074546;28;20039;-78
2020/12/14 06:29:58;;;;;;;4.10;1.17;;;8.30;99.90;;;;;;5076008;28;20028;-79
2020/12/14 06:32:38;;;;;;;1.65;1.02;;;8.40;99.90;;;;;;5076562;28;20070;-79
2020/12/14 06:35:14;;;;;;;1.70;0.85;;;8.40;99.90;;;;;;5079790;28;20082;-78
2020/12/14 06:37:47;;;;;;;3.58;0.80;;;8.40;99.90;;;;;;5080055;28;20028;-79
2020/12/14 06:40:13;;;;;;;2.50;0.93;;;8.40;99.90;;;;;;5080412;28;20028;-79
2020/12/14 06:42:38;;;;;;;1.27;0.90;;;8.50;99.90;;;;;;5077127;28;20062;-79
2020/12/14 06:45:05;;;;;;;2.60;1.00;;;8.40;99.90;;;;;;5077645;28;20027;-80
2020/12/14 06:47:50;;;;;;;2.25;1.30;;;8.40;99.90;;;;;;5078894;28;20020;-80
2020/12/14 06:50:21;;;;;;;4.20;0.70;;;8.50;99.90;;;;;;5078935;28;20108;-77
2020/12/14 06:52:47;;;;;;;3.22;0.63;;;8.60;99.90;;;;;;5077147;28;20434;-79
2020/12/14 06:55:12;;;;;;;2.65;0.75;;;8.60;99.90;;;;;;5077750;28;20024;-79
2020/12/14 06:57:39;;;;;;;1.48;1.00;;;8.60;99.90;;;;;;5076664;28;20128;-78
2020/12/14 07:00:06;;;;;;;4.15;1.20;;;8.60;99.90;;;;;;5074110;28;20513;-78
2020/12/14 07:02:39;;;;;;;2.60;1.55;;;8.60;99.90;;;;;;5075224;28;20020;-79
2020/12/14 07:05:30;;;;;;;5.22;1.38;;;8.60;99.90;;;;;;5077183;28;20028;-79
2020/12/14 07:07:57;;;;;;;2.90;1.30;;;8.60;99.90;;;;;;5075460;28;20028;-77
2020/12/14 07:10:27;;;;;;;1.33;1.05;;;8.60;99.90;;;;;;5075000;28;20436;-78
2020/12/14 07:12:53;;;;;;;3.65;1.75;;;8.60;99.90;;;;;;5112853;22;20020;-72
2020/12/14 07:15:26;;;;;;;1.95;1.13;;;8.60;99.90;;;;;;5096020;28;20035;-79
2020/12/14 07:18:02;;;;;;;2.25;1.40;;;8.70;99.90;;;;;;5096640;28;20020;-80
2020/12/14 07:20:28;;;;;;;5.35;2.53;;;8.70;99.90;;;;;;5095754;28;20128;-76
2020/12/14 07:22:59;;;;;;;2.65;1.45;;;8.80;99.90;;;;;;5086091;28;20056;-77
2020/12/14 07:25:25;;;;;;;3.53;1.45;;;8.80;99.90;;;;;;5084643;28;20515;-77
2020/12/14 07:27:51;;;;;;;3.17;1.40;;;8.80;99.90;;;;;;5092711;28;20477;-77
2020/12/14 07:30:19;;;;;;;2.97;1.73;;;8.90;99.90;;;;;;5096864;28;20031;-78
2020/12/14 07:32:47;;;;;;;2.13;1.67;;;8.90;99.90;;;;;;5092799;28;20012;-78
2020/12/14 07:35:12;;;;;;;4.85;2.20;;;8.80;99.90;;;;;;5093727;28;20024;-78
2020/12/14 07:37:40;;;;;;;3.88;2.10;;;8.80;99.90;;;;;;5100318;28;20026;-79
2020/12/14 07:40:07;;;;;;;2.67;1.60;;;8.80;99.90;;;;;;5096132;28;20024;-78
2020/12/14 07:42:34;;;;;;;3.53;1.65;;;8.80;99.90;;;;;;5092389;28;20023;-78
2020/12/14 07:45:20;;;;;;;3.50;2.28;;;8.90;99.90;;;;;;5093547;28;20020;-78
2020/12/14 07:47:48;;;;;;;4.10;1.77;;;8.90;99.90;;;;;;5092456;28;20081;-78
2020/12/14 07:50:20;;;;;;;6.30;2.07;;;8.90;99.90;;;;;;5093530;28;20400;-77
2020/12/14 07:52:49;;;;;;;4.75;2.40;;;9.00;99.90;;;;;;5093432;28;20273;-78
2020/12/14 07:55:15;;;;;;;7.78;1.70;;;9.00;99.90;;;;;;5092222;28;20024;-78
2020/12/14 07:57:44;;;;;;;2.25;1.80;;;9.00;99.90;;;;;;5093541;28;20542;-77
2020/12/14 08:00:11;;;;;;;3.28;1.98;;;9.10;99.90;;;;;;5092329;28;20111;-78
2020/12/14 08:02:44;;;;;;;4.00;2.30;;;9.10;99.90;;;;;;5092229;28;20043;-78
2020/12/14 08:05:13;;;;;;;4.63;1.95;;;9.10;99.90;;;;;;5093779;28;20044;-78
2020/12/14 08:07:42;;;;;;;;;;;9.20;99.90;;;;;;5093762;28;20110;-78
2020/12/14 08:10:08;;;;;;;4.93;2.08;;;9.20;99.90;;;;;;5092079;28;19934;-78
2020/12/14 08:12:36;;;;;;;3.63;2.03;;;9.30;99.90;;;;;;5091998;28;20057;-78
2020/12/14 08:15:04;;;;;;;2.53;1.90;;;9.30;99.90;;;;;;5093341;28;20032;-78
2020/12/14 08:17:33;;;;;;;2.75;2.35;;;9.30;99.90;;;;;;5092109;28;20530;-78
2020/12/14 08:19:59;;;;;;;4.57;2.50;;;9.40;99.90;;;;;;5091946;28;20110;-78
2020/12/14 08:22:32;;;;;;;3.58;2.78;;;9.40;99.90;;;;;;5091953;28;20066;-78
2020/12/14 08:24:58;;;;;;;5.55;2.53;;;9.40;99.90;;;;;;5094121;28;20028;-78
2020/12/14 08:27:54;;;;;;;4.43;2.22;;;9.40;99.90;;;;;;5092274;28;20266;-78
2020/12/14 08:30:21;;;;;;;2.78;1.92;;;9.50;99.90;;;;;;5092813;28;20044;-78
2020/12/14 08:33:09;;;;;;;5.60;2.40;;;9.50;99.90;;;;;;5093419;28;20445;-78
2020/12/14 08:35:39;;;;;;;3.53;2.05;;;9.50;99.90;;;;;;5093422;28;20035;-77
2020/12/14 08:38:13;;;;;;;3.22;1.92;;;9.60;99.90;;;;;;5091768;28;20469;-78
2020/12/14 08:40:48;;;;;;;2.60;2.13;;;9.60;99.90;;;;;;5093122;28;20028;-78
2020/12/14 08:43:16;;;;;;;3.72;2.20;;;9.60;99.90;;;;;;5092241;28;20454;-78
2020/12/14 08:46:11;;;;;;;3.53;2.05;;;9.60;99.90;;;;;;5093162;28;20107;-78
2020/12/14 08:48:51;;;;;;;3.75;2.53;;;9.70;99.90;;;;;;5093568;28;20032;-78
2020/12/14 08:51:24;;;;;;;3.85;2.22;;;9.70;99.90;;;;;;5095329;28;20024;-78
2020/12/14 08:53:52;;;;;;;1.75;1.52;;;9.70;99.90;;;;;;5097104;28;20024;-78
2020/12/14 08:56:23;;;;;;;5.20;2.38;;;9.80;99.90;;;;;;5097335;28;20469;-78
2020/12/14 08:59:13;;;;;;;1.95;1.75;;;9.80;99.90;;;;;;5097437;28;20081;-78
2020/12/14 09:01:38;;;;;;;2.97;1.52;;;9.90;99.90;;;;;;5088998;28;20554;-78
2020/12/14 09:04:05;;;;;;;2.80;1.95;;;9.90;99.90;;;;;;5096563;28;20028;-77
2020/12/14 09:06:38;;;;;;;2.00;1.80;;;10.00;99.90;;;;;;5096636;28;20031;-78
2020/12/14 09:09:03;;;;;;;2.42;1.67;;;10.00;99.90;;;;;;5096743;28;20077;-78
2020/12/14 09:11:31;;;;;;;4.63;2.25;;;10.00;99.90;;;;;;5096657;28;20024;-78
2020/12/14 09:14:01;;;;;;;2.75;1.95;;;10.10;99.90;;;;;;5096400;28;20435;-78
2020/12/14 09:16:28;;;;;;;6.25;2.33;;;10.10;99.90;;;;;;5096502;28;20031;-78
2020/12/14 09:18:53;;;;;;;2.80;1.70;;;10.10;99.90;;;;;;5095119;28;20046;-76
2020/12/14 09:21:19;;;;;;;4.90;1.17;;;10.20;99.90;;;;;;5095147;28;20024;-76
2020/12/14 09:24:05;;;;;;;1.23;1.02;;;10.20;99.90;;;;;;5096717;28;20355;-76
2020/12/14 09:26:31;;;;;;;3.28;1.27;;;10.20;99.90;;;;;;5094823;28;20024;-76
2020/12/14 09:28:56;;;;;;;1.50;1.35;;;10.30;99.90;;;;;;5096280;28;20023;-77
2020/12/14 09:31:22;;;;;;;1.13;0.73;;;10.40;99.90;;;;;;5094898;28;20027;-77
2020/12/14 09:33:47;;;;;;;1.73;1.40;;;10.30;99.90;;;;;;5094937;28;20020;-76
2020/12/14 09:36:16;;;;;;;1.52;0.98;;;10.30;99.90;;;;;;5096387;28;20020;-76
2020/12/14 09:38:42;;;;;;;1.45;0.82;;;10.30;99.90;;;;;;5094897;28;20062;-77
2020/12/14 09:41:08;;;;;;;2.20;1.15;;;10.40;99.90;;;;;;5095998;28;20032;-76
2020/12/14 09:43:33;;;;;;;1.45;0.80;;;10.40;99.90;;;;;;5094616;28;20020;-76
2020/12/14 09:45:59;;;;;;;3.28;1.90;;;10.50;99.90;;;;;;5095982;28;20027;-76
2020/12/14 09:48:28;;;;;;;3.53;1.23;;;10.50;99.90;;;;;;5094543;28;20115;-76
2020/12/14 09:50:56;;;;;;;1.25;1.00;;;10.50;99.90;;;;;;5093778;28;20465;-76
2020/12/14 09:53:22;;;;;;;2.33;1.00;;;10.60;99.90;;;;;;5093312;28;20016;-77
2020/12/14 09:55:47;;;;;;;1.33;0.60;;;10.50;99.90;;;;;;5094207;28;20026;-76
2020/12/14 09:58:12;;;;;;;2.20;0.95;;;10.60;99.90;;;;;;5095875;28;20023;-78
2020/12/14 10:00:40;;;;;;;1.30;0.95;;;10.60;99.90;;;;;;5095127;28;20032;-77
2020/12/14 10:03:06;;;;;;;3.40;1.10;;;10.60;99.90;;;;;;5095407;28;20422;-78
2020/12/14 10:05:31;;;;;;;2.75;0.70;;;10.60;99.90;;;;;;5096693;28;20091;-78
2020/12/14 10:07:57;;;;;;;1.23;0.63;;;10.60;99.90;;;;;;5094372;28;20028;-78
2020/12/14 10:10:22;;;;;;;1.65;0.47;;;10.60;99.90;;;;;;5094560;28;20496;-79
2020/12/14 10:12:48;;;;;;;3.50;0.47;;;10.70;99.90;;;;;;5094926;28;20016;-78
2020/12/14 10:15:13;;;;;;;1.08;0.35;;;10.70;99.90;;;;;;5095581;28;20028;-78
2020/12/14 10:17:39;;;;;;;1.05;0.45;;;10.70;99.90;;;;;;5093907;28;20035;-78
2020/12/14 10:20:05;;;;;;;3.50;0.60;;;10.80;99.90;;;;;;5094069;28;20479;-78
2020/12/14 10:22:32;;;;;;;2.42;0.60;;;10.80;99.90;;;;;;5095493;28;20032;-78
2020/12/14 10:24:57;;;;;;;1.48;0.35;;;10.80;99.90;;;;;;5093981;28;20389;-78
2020/12/14 10:27:23;;;;;;;2.28;0.57;;;10.80;99.90;;;;;;5095006;28;20020;-79
2020/12/14 10:29:48;;;;;;;2.92;0.57;;;10.90;99.90;;;;;;5095391;28;20024;-78
2020/12/14 10:32:14;;;;;;;2.45;0.98;;;10.90;99.90;;;;;;5093642;28;20028;-79
2020/12/14 10:34:40;;;;;;;1.75;0.50;;;10.90;99.90;;;;;;5095904;28;20028;-78
2020/12/14 10:37:05;;;;;;;1.50;0.50;;;10.90;99.90;;;;;;5095352;28;20016;-78
2020/12/14 10:39:31;;;;;;;1.38;0.28;;;10.90;99.90;;;;;;5094994;28;20032;-78
2020/12/14 10:41:56;;;;;;;1.52;0.28;;;11.00;99.90;;;;;;5095158;28;20024;-78
2020/12/14 10:44:22;;;;;;;1.10;0.25;;;11.00;99.90;;;;;;5094436;28;20028;-76
2020/12/14 10:46:47;;;;;;;0.85;0.40;;;11.00;99.90;;;;;;5094895;28;20481;-76
2020/12/14 10:49:13;;;;;;;1.10;0.57;;;11.00;99.90;;;;;;5094692;28;20017;-76
2020/12/14 10:51:38;;;;;;;1.27;0.30;;;11.10;99.90;;;;;;5093586;28;20016;-77
2020/12/14 10:54:04;;;;;;;3.20;0.15;;;11.20;99.90;;;;;;5094613;28;20055;-76
2020/12/14 10:56:29;;;;;;;2.05;0.30;;;11.10;99.90;;;;;;5093405;28;20024;-76
2020/12/14 10:58:56;;;;;;;2.00;0.50;;;11.20;99.90;;;;;;5093647;28;20049;-76
2020/12/14 11:01:22;;;;;;;1.95;0.50;;;11.20;99.90;;;;;;5093638;28;20023;-76
2020/12/14 11:03:47;;;;;;;1.27;0.40;;;11.20;99.90;;;;;;5094870;28;20028;-76
2020/12/14 11:06:13;;;;;;;1.15;0.40;;;11.30;99.90;;;;;;5094775;28;20024;-76
2020/12/14 11:08:38;;;;;;;1.30;0.40;;;11.30;99.90;;;;;;5094524;28;20032;-76
2020/12/14 11:11:04;;;;;;;0.63;0.28;;;11.30;99.90;;;;;;5094478;28;20031;-76
2020/12/14 11:13:30;;;;;;;2.72;0.50;;;11.40;99.90;;;;;;5094129;28;20042;-76
2020/12/14 11:15:55;;;;;;;1.35;0.35;;;11.40;99.90;;;;;;5093026;28;20025;-76
2020/12/14 11:18:21;;;;;;;3.92;0.85;;;11.40;99.90;;;;;;5094625;28;20024;-76
2020/12/14 11:20:47;;;;;;;2.05;0.47;;;11.40;99.90;;;;;;5094205;28;20020;-76
2020/12/14 11:23:13;;;;;;;1.98;0.47;;;11.50;99.90;;;;;;5094195;28;20556;-77
2020/12/14 11:25:39;;;;;;;1.98;0.32;;;11.50;99.90;;;;;;5094242;28;20040;-76
2020/12/14 11:28:04;;;;;;;0.98;0.63;;;11.50;99.90;;;;;;5094138;28;20028;-76
2020/12/14 11:30:30;;;;;;;0.65;0.65;;;11.60;99.90;;;;;;5092944;28;20016;-76
2020/12/14 11:32:56;;;;;;;3.45;0.52;;;11.80;99.90;;;;;;5092924;28;20043;-76
2020/12/14 11:35:21;;;;;;;3.20;0.30;;;11.90;99.90;;;;;;5093910;28;20024;-76
2020/12/14 11:37:47;;;;;;;1.50;0.38;;;12.00;99.90;;;;;;5093833;28;20106;-76
2020/12/14 11:40:14;;;;;;;0.30;0.30;;;12.00;99.90;;;;;;5094209;28;20024;-76
2020/12/14 11:42:39;;;;;;;3.53;1.38;;;12.00;99.90;;;;;;5092635;28;20024;-77
2020/12/14 11:45:09;;;;;;;5.28;0.50;;;11.90;99.90;;;;;;5092702;28;20031;-76
2020/12/14 11:47:34;;;;;;;1.45;0.52;;;11.90;99.90;;;;;;5093682;28;20481;-76
2020/12/14 11:50:00;;;;;;;1.77;0.30;;;11.80;99.90;;;;;;5092911;28;20020;-76
2020/12/14 11:52:25;;;;;;;2.42;0.32;;;11.70;99.90;;;;;;5093777;28;20358;-76
2020/12/14 11:54:51;;;;;;;1.85;0.73;;;11.60;99.90;;;;;;5093656;28;20028;-76
2020/12/14 11:57:16;;;;;;;0.98;0.47;;;11.40;99.90;;;;;;5093727;28;20125;-76
2020/12/14 11:59:42;;;;;;;1.95;0.52;;;11.30;99.90;;;;;;5093695;28;20032;-76
2020/12/14 12:02:07;;;;;;;2.15;0.88;;;11.20;99.90;;;;;;5092812;28;20016;-77
2020/12/14 12:04:33;;;;;;;1.02;0.60;;;11.20;99.90;;;;;;5093922;28;20016;-77
2020/12/14 12:07:02;;;;;;;0.70;0.45;;;11.20;99.90;;;;;;5093562;28;20055;-77
2020/12/14 12:09:28;;;;;;;3.78;0.43;;;11.20;99.90;;;;;;5092209;28;20020;-76
2020/12/14 12:11:53;;;;;;;3.05;0.38;;;11.30;99.90;;;;;;5093896;28;20023;-76
2020/12/14 12:14:19;;;;;;;1.27;0.30;;;11.30;99.90;;;;;;5093646;28;20031;-76
2020/12/14 12:16:44;;;;;;;1.25;0.68;;;11.40;99.90;;;;;;5092201;28;20024;-76
2020/12/14 12:19:12;;;;;;;2.38;0.50;;;11.40;99.90;;;;;;5092288;28;20028;-76
2020/12/14 12:21:38;;;;;;;2.08;0.57;;;11.50;99.90;;;;;;5092133;28;20020;-76
2020/12/14 12:24:03;;;;;;;2.38;0.40;;;11.50;99.90;;;;;;5093249;28;20185;-76
2020/12/14 12:26:29;;;;;;;0.70;0.57;;;11.50;99.90;;;;;;5095863;28;20039;-76
2020/12/14 12:28:54;;;;;;;2.67;0.50;;;11.60;99.90;;;;;;5096016;28;20129;-77
2020/12/14 12:31:20;;;;;;;0.88;0.30;;;11.50;99.90;;;;;;5097472;28;20366;-76
2020/12/14 12:33:45;;;;;;;5.03;0.35;;;11.60;99.90;;;;;;5097456;28;20020;-76
2020/12/14 12:36:11;;;;;;;2.92;0.43;;;11.50;99.90;;;;;;5097564;28;20028;-77
2020/12/14 12:38:36;;;;;;;0.85;0.28;;;11.60;99.90;;;;;;5095858;28;20358;-76
2020/12/14 12:41:02;;;;;;;2.50;0.10;;;11.60;99.90;;;;;;5097080;28;20101;-77
2020/12/14 12:43:27;;;;;;;5.72;0.38;;;11.60;99.90;;;;;;5097467;28;20031;-76
2020/12/14 12:45:53;;;;;;;3.28;0.30;;;11.60;99.90;;;;;;5097173;28;20034;-77
2020/12/14 12:48:19;;;;;;;3.45;0.50;;;11.80;99.90;;;;;;5097237;28;20051;-76
2020/12/14 12:50:53;;;;;;;2.08;0.30;;;12.00;99.90;;;;;;5097374;28;20056;-76
2020/12/14 12:53:23;;;;;;;3.00;0.47;;;12.20;99.90;;;;;;5097708;28;20498;-76
2020/12/14 12:55:50;;;;;;;1.45;0.38;;;12.20;99.90;;;;;;5097012;28;20423;-76
2020/12/14 12:58:15;;;;;;;1.27;0.50;;;12.10;99.90;;;;;;5097425;28;20031;-77